Time;durP1;ratioP1;P1;durP2;ratioP2;P2;SDS_P1;SDS_P2;PMS_P1;PMS_P2;Temp;Humidity;BMP_temperature;BMP_pressure;BME280_temperature;BME280_humidity;BME280_pressure;Samples;Min_cycle;Max_cycle;Signal;HPM_P1;HPM_P2
2023/08/31 00:02:13;;;;;;;7.28;3.22;;;512.50;2380.80;;;;;;5034707;28;20124;-72
2023/08/31 00:04:39;;;;;;;6.05;3.15;;;512.50;2380.80;;;;;;5034623;28;20096;-72
2023/08/31 00:07:06;;;;;;;6.55;3.17;;;512.40;2380.80;;;;;;5034388;28;20018;-72
2023/08/31 00:09:32;;;;;;;6.63;3.17;;;512.40;2380.80;;;;;;5033430;28;20032;-72
2023/08/31 00:11:58;;;;;;;7.18;2.90;;;512.50;2380.80;;;;;;5034422;28;20025;-72
2023/08/31 00:14:25;;;;;;;8.05;2.97;;;512.50;2380.80;;;;;;5034573;28;20482;-72
2023/08/31 00:16:51;;;;;;;5.78;2.47;;;512.50;2380.80;;;;;;5034369;28;20018;-72
2023/08/31 00:19:17;;;;;;;4.65;2.67;;;512.60;2380.80;;;;;;5034397;28;20497;-72
2023/08/31 00:21:43;;;;;;;9.15;3.20;;;512.60;2380.80;;;;;;5034391;28;20072;-73
2023/08/31 00:24:10;;;;;;;7.55;3.55;;;512.70;2380.80;;;;;;5034258;28;20367;-73
2023/08/31 00:26:40;;;;;;;9.00;3.72;;;512.50;2380.80;;;;;;5033160;28;20092;-71
2023/08/31 00:29:07;;;;;;;8.90;3.40;;;512.30;2380.80;;;;;;5034337;28;20079;-70
2023/08/31 00:31:33;;;;;;;6.72;3.08;;;512.20;2380.80;;;;;;5033863;28;20073;-70
2023/08/31 00:34:03;;;;;;;7.88;3.42;;;487.30;2380.80;;;;;;5033919;28;20544;-70
2023/08/31 00:36:29;;;;;;;7.15;3.00;;;487.30;2380.80;;;;;;5034114;28;20025;-70
2023/08/31 00:38:54;;;;;;;3.75;2.67;;;487.30;2380.80;;;;;;5034058;28;20025;-70
2023/08/31 00:41:22;;;;;;;5.18;3.00;;;487.10;2380.80;;;;;;5034146;28;20025;-70
2023/08/31 00:43:47;;;;;;;6.07;3.28;;;487.00;2380.80;;;;;;5034114;28;20030;-70
2023/08/31 00:46:14;;;;;;;7.30;3.60;;;487.00;2380.80;;;;;;5033956;28;20513;-70
2023/08/31 00:48:40;;;;;;;8.63;3.45;;;487.00;2380.80;;;;;;5033931;28;20022;-70
2023/08/31 00:51:07;;;;;;;9.75;3.92;;;487.10;2380.80;;;;;;5032437;28;20064;-70
2023/08/31 00:53:33;;;;;;;6.60;3.03;;;487.10;2380.80;;;;;;5033820;28;20030;-69
2023/08/31 00:55:59;;;;;;;7.88;3.95;;;487.00;2380.80;;;;;;5033880;28;20025;-70
2023/08/31 00:58:25;;;;;;;7.20;3.78;;;487.00;2380.80;;;;;;5033662;28;20033;-70
2023/08/31 01:01:03;;;;;;;10.60;3.97;;;487.30;2380.80;;;;;;5033515;28;20490;-70
2023/08/31 01:03:46;;;;;;;18.00;4.40;;;487.10;2380.80;;;;;;5033788;28;20029;-70
2023/08/31 01:06:31;;;;;;;5.57;3.70;;;487.10;2380.80;;;;;;5033598;28;20025;-72
2023/08/31 01:09:10;;;;;;;5.07;3.60;;;487.10;2380.80;;;;;;5033498;28;20041;-73
2023/08/31 01:11:48;;;;;;;6.40;4.25;;;486.80;2380.80;;;;;;5031959;28;20553;-72
2023/08/31 01:14:19;;;;;;;6.50;3.90;;;486.60;2380.80;;;;;;5033270;28;20033;-71
2023/08/31 01:16:48;;;;;;;9.68;3.97;;;486.70;2380.80;;;;;;5032226;28;20022;-71
2023/08/31 01:19:40;;;;;;;8.93;4.05;;;486.70;2380.80;;;;;;5032888;28;20029;-70
2023/08/31 01:22:13;;;;;;;9.63;4.47;;;487.00;2380.80;;;;;;5033224;28;20021;-71
2023/08/31 01:24:39;;;;;;;6.85;4.47;;;486.80;2380.80;;;;;;5033278;28;20385;-73
2023/08/31 01:27:05;;;;;;;9.20;4.53;;;487.00;2380.80;;;;;;5033135;28;20017;-73
2023/08/31 01:29:31;;;;;;;7.28;3.72;;;487.00;2380.80;;;;;;5033234;28;20033;-72
2023/08/31 01:31:57;;;;;;;8.25;4.15;;;487.00;2380.80;;;;;;5033028;28;20056;-72
2023/08/31 01:34:23;;;;;;;6.82;3.88;;;487.00;2380.80;;;;;;5031947;28;20042;-73
2023/08/31 01:36:56;;;;;;;7.80;3.72;;;487.10;2380.80;;;;;;5033058;28;20108;-72
2023/08/31 01:39:38;;;;;;;6.63;4.35;;;487.00;2380.80;;;;;;5033110;28;20103;-72
2023/08/31 01:42:06;;;;;;;6.95;4.10;;;487.00;2380.80;;;;;;5033365;28;20030;-73
2023/08/31 01:44:35;;;;;;;9.38;3.85;;;487.00;2380.80;;;;;;5033135;28;20032;-73
2023/08/31 01:47:07;;;;;;;5.22;4.05;;;487.00;2380.80;;;;;;5033010;28;20533;-73
2023/08/31 01:49:37;;;;;;;6.95;4.30;;;487.10;2380.80;;;;;;5032936;28;20030;-72
2023/08/31 01:52:03;;;;;;;8.20;4.60;;;487.10;2380.80;;;;;;5032747;28;20028;-72
2023/08/31 01:54:29;;;;;;;9.15;4.32;;;487.10;2380.80;;;;;;5033361;28;20486;-71
2023/08/31 01:56:55;;;;;;;7.07;4.22;;;487.10;2380.80;;;;;;5032941;28;20029;-73
2023/08/31 01:59:21;;;;;;;6.80;4.82;;;487.10;2380.80;;;;;;5033099;28;20028;-70
2023/08/31 02:01:47;;;;;;;7.63;5.40;;;487.10;2380.80;;;;;;5032947;28;20030;-70
2023/08/31 02:04:13;;;;;;;6.70;4.18;;;487.10;2380.80;;;;;;5032858;28;20033;-70
2023/08/31 02:06:38;;;;;;;9.18;4.80;;;487.10;2380.80;;;;;;5032846;28;20075;-73
2023/08/31 02:09:05;;;;;;;6.82;4.35;;;487.10;2380.80;;;;;;5032632;28;20109;-72
2023/08/31 02:11:32;;;;;;;7.55;4.47;;;487.20;2380.80;;;;;;5033136;28;20036;-72
2023/08/31 02:13:58;;;;;;;8.00;4.78;;;487.10;2380.80;;;;;;5032722;28;20128;-72
2023/08/31 02:16:24;;;;;;;7.40;4.53;;;487.00;2380.80;;;;;;5032787;28;20092;-73
2023/08/31 02:18:49;;;;;;;6.07;4.10;;;487.10;2380.80;;;;;;5032833;28;20553;-72
2023/08/31 02:21:15;;;;;;;9.73;4.22;;;487.10;2380.80;;;;;;5032611;28;20101;-71
2023/08/31 02:23:41;;;;;;;9.50;4.65;;;487.10;2380.80;;;;;;5033037;28;20561;-72
2023/08/31 02:26:06;;;;;;;5.82;4.03;;;487.20;2380.80;;;;;;5032005;28;20021;-70
2023/08/31 02:28:32;;;;;;;6.45;4.43;;;487.30;2380.80;;;;;;5031213;28;20030;-69
2023/08/31 02:31:02;;;;;;;8.82;4.63;;;487.20;2380.80;;;;;;5032745;28;20041;-70
2023/08/31 02:33:27;;;;;;;7.00;4.30;;;487.10;2380.80;;;;;;5037300;28;20300;-71
2023/08/31 02:35:55;;;;;;;7.85;4.30;;;486.90;2380.80;;;;;;5037598;28;20470;-70
2023/08/31 02:38:21;;;;;;;7.43;4.53;;;486.70;2380.80;;;;;;5038588;28;20044;-70
2023/08/31 02:40:47;;;;;;;6.97;4.45;;;486.70;2380.80;;;;;;5036111;28;20017;-70
2023/08/31 02:43:13;;;;;;;6.38;4.88;;;486.80;2380.80;;;;;;5035693;28;20100;-71
2023/08/31 02:45:39;;;;;;;6.60;4.68;;;486.60;2380.80;;;;;;5035641;28;20432;-70
2023/08/31 02:48:08;;;;;;;10.25;4.57;;;486.70;2380.80;;;;;;5035721;28;20177;-70
2023/08/31 02:50:38;;;;;;;12.95;5.40;;;486.50;2380.80;;;;;;5035256;28;20045;-70
2023/08/31 02:53:04;;;;;;;7.00;5.50;;;486.50;2380.80;;;;;;5034035;28;20045;-69
2023/08/31 02:55:32;;;;;;;9.20;7.07;;;486.40;2380.80;;;;;;5035313;28;20108;-70
2023/08/31 02:57:58;;;;;;;8.68;6.13;;;486.40;2380.80;;;;;;5035249;28;20030;-70
2023/08/31 03:00:24;;;;;;;9.60;6.30;;;486.40;2380.80;;;;;;5035391;28;20028;-71
2023/08/31 03:02:52;;;;;;;11.45;6.18;;;486.40;2380.80;;;;;;5035081;28;20029;-71
2023/08/31 03:05:19;;;;;;;13.05;6.90;;;486.50;2380.80;;;;;;5035200;28;20470;-70
2023/08/31 03:07:45;;;;;;;12.20;7.20;;;486.60;2380.80;;;;;;5034910;28;20037;-70
2023/08/31 03:10:11;;;;;;;11.68;7.25;;;486.60;2380.80;;;;;;5034953;28;20030;-70
2023/08/31 03:12:37;;;;;;;11.20;7.38;;;486.60;2380.80;;;;;;5035285;28;20107;-70
2023/08/31 03:15:05;;;;;;;11.90;6.28;;;486.70;2380.80;;;;;;5035088;28;20437;-71
2023/08/31 03:17:31;;;;;;;12.25;6.93;;;486.70;2380.80;;;;;;5035170;28;20474;-71
2023/08/31 03:19:57;;;;;;;13.93;7.35;;;486.70;2380.80;;;;;;5033579;28;20026;-70
2023/08/31 03:22:23;;;;;;;13.52;7.80;;;486.50;2380.80;;;;;;5033542;28;20500;-71
2023/08/31 03:24:48;;;;;;;12.95;7.35;;;486.50;2380.80;;;;;;5034995;28;20144;-71
2023/08/31 03:27:15;;;;;;;12.15;8.10;;;486.50;2380.80;;;;;;5034697;28;20037;-71
2023/08/31 03:29:41;;;;;;;12.70;7.82;;;486.40;2380.80;;;;;;5034907;28;20072;-71
2023/08/31 03:32:07;;;;;;;11.43;7.80;;;461.70;2380.80;;;;;;5034454;28;20444;-71
2023/08/31 03:34:33;;;;;;;21.23;9.18;;;461.70;2380.80;;;;;;5033513;28;20026;-71
2023/08/31 03:36:59;;;;;;;12.75;9.60;;;461.70;2380.80;;;;;;5034511;28;20027;-70
2023/08/31 03:39:25;;;;;;;15.52;10.65;;;461.70;2380.80;;;;;;5034518;28;20029;-71
2023/08/31 03:41:51;;;;;;;17.63;11.80;;;461.70;2380.80;;;;;;5034237;28;20080;-71
2023/08/31 03:44:17;;;;;;;21.98;12.90;;;486.50;2380.80;;;;;;5034368;28;20061;-71
2023/08/31 03:46:43;;;;;;;18.05;12.60;;;486.60;2380.80;;;;;;5034667;28;20040;-70
2023/08/31 03:49:09;;;;;;;22.85;11.52;;;486.50;2380.80;;;;;;5034335;28;20549;-71
2023/08/31 03:51:35;;;;;;;17.67;11.18;;;486.50;2380.80;;;;;;5034196;28;20064;-71
2023/08/31 03:54:01;;;;;;;20.75;10.13;;;486.40;2380.80;;;;;;5034178;28;20069;-70
2023/08/31 03:56:26;;;;;;;15.57;11.68;;;461.70;2380.80;;;;;;5034379;28;20036;-71
2023/08/31 03:58:53;;;;;;;19.42;12.52;;;461.70;2380.80;;;;;;5034104;28;20104;-70
2023/08/31 04:01:18;;;;;;;16.88;12.90;;;486.40;2380.80;;;;;;5034119;28;20026;-70
2023/08/31 04:03:44;;;;;;;17.38;13.45;;;461.70;2380.80;;;;;;5032796;28;20037;-69
2023/08/31 04:06:10;;;;;;;18.55;11.68;;;461.70;2380.80;;;;;;5032671;28;20037;-69
2023/08/31 04:08:36;;;;;;;21.23;12.13;;;461.50;2380.80;;;;;;5033983;28;20029;-70
2023/08/31 04:11:03;;;;;;;21.23;12.70;;;461.40;2380.80;;;;;;5033839;28;20032;-71
2023/08/31 04:13:29;;;;;;;14.95;12.05;;;461.50;2380.80;;;;;;5033997;28;20029;-71
2023/08/31 04:15:55;;;;;;;21.33;11.93;;;461.70;2380.80;;;;;;5033977;28;20037;-73
2023/08/31 04:18:21;;;;;;;15.23;12.50;;;486.50;2380.80;;;;;;5033889;28;20021;-73
2023/08/31 04:20:52;;;;;;;18.63;11.85;;;486.40;2380.80;;;;;;5033854;28;20087;-71
2023/08/31 04:23:21;;;;;;;16.20;12.57;;;461.60;2380.80;;;;;;5033589;28;20108;-74
2023/08/31 04:25:47;;;;;;;18.17;13.63;;;461.60;2380.80;;;;;;5033716;28;20037;-70
2023/08/31 04:28:14;;;;;;;19.08;12.35;;;461.70;2380.80;;;;;;5033641;28;20485;-73
2023/08/31 04:30:40;;;;;;;18.25;13.35;;;486.50;2380.80;;;;;;5033608;28;20678;-72
2023/08/31 04:33:06;;;;;;;16.30;12.90;;;486.50;2380.80;;;;;;5033543;28;20045;-73
2023/08/31 04:35:33;;;;;;;18.83;12.43;;;486.50;2380.80;;;;;;5035109;28;20060;-72
2023/08/31 04:37:58;;;;;;;28.80;14.98;;;486.50;2380.80;;;;;;5044055;28;20436;-72
2023/08/31 04:40:24;;;;;;;23.70;15.38;;;486.50;2380.80;;;;;;5040546;28;20017;-72
2023/08/31 04:42:50;;;;;;;24.48;14.77;;;486.50;2380.80;;;;;;5041519;28;20037;-73
2023/08/31 04:45:16;;;;;;;21.98;16.02;;;486.80;2380.80;;;;;;5033549;28;20030;-72
2023/08/31 04:47:42;;;;;;;20.95;15.48;;;486.90;2380.80;;;;;;5040612;28;20492;-70
2023/08/31 04:50:08;;;;;;;22.70;16.13;;;487.00;2380.80;;;;;;5042706;28;20022;-73
2023/08/31 04:52:34;;;;;;;18.33;16.27;;;487.00;2380.80;;;;;;5041267;28;20075;-73
2023/08/31 04:55:01;;;;;;;21.92;16.85;;;487.10;2380.80;;;;;;5038153;28;20029;-73
2023/08/31 04:57:28;;;;;;;22.55;16.77;;;487.00;2380.80;;;;;;5041320;28;20021;-73
2023/08/31 04:59:54;;;;;;;19.95;16.65;;;487.00;2380.80;;;;;;5039677;28;20623;-73
2023/08/31 05:02:19;;;;;;;22.27;16.52;;;487.10;2380.80;;;;;;5040291;28;20462;-72
2023/08/31 05:04:45;;;;;;;16.17;14.45;;;487.20;2380.80;;;;;;5040116;28;20048;-70
2023/08/31 05:07:11;;;;;;;17.80;14.75;;;487.30;2380.80;;;;;;5037987;28;20107;-70
2023/08/31 05:09:36;;;;;;;17.77;14.00;;;487.20;2380.80;;;;;;5038848;28;20473;-71
2023/08/31 05:12:03;;;;;;;16.00;12.45;;;487.30;2380.80;;;;;;5036885;28;20026;-74
2023/08/31 05:14:29;;;;;;;18.67;13.93;;;487.30;2380.80;;;;;;5038341;28;20111;-74
2023/08/31 05:16:55;;;;;;;22.40;15.38;;;512.00;2380.80;;;;;;5041494;28;20064;-71
2023/08/31 05:19:21;;;;;;;17.08;15.25;;;512.10;2380.80;;;;;;5042679;28;20043;-71
2023/08/31 05:21:46;;;;;;;19.02;15.80;;;512.10;2380.80;;;;;;5043251;28;20470;-70
2023/08/31 05:24:12;;;;;;;18.75;14.75;;;512.10;2380.80;;;;;;5040963;28;20028;-70
2023/08/31 05:26:39;;;;;;;20.92;14.48;;;512.20;2380.80;;;;;;5037401;28;20018;-72
2023/08/31 05:29:05;;;;;;;17.02;15.05;;;512.20;2380.80;;;;;;5043001;28;20029;-69
2023/08/31 05:31:31;;;;;;;19.45;15.07;;;512.20;2380.80;;;;;;5037636;28;20045;-70
2023/08/31 05:33:56;;;;;;;17.20;14.90;;;512.30;2380.80;;;;;;5019307;28;20056;-70
2023/08/31 05:36:22;;;;;;;20.02;14.38;;;512.40;2380.80;;;;;;5038272;28;20029;-70
2023/08/31 05:38:48;;;;;;;19.42;15.18;;;512.40;2380.80;;;;;;5041929;28;20036;-71
2023/08/31 05:41:13;;;;;;;18.02;15.75;;;512.50;2380.80;;;;;;5044467;28;20465;-71
2023/08/31 05:43:42;;;;;;;20.88;15.48;;;512.50;2380.80;;;;;;5040803;28;20370;-69
2023/08/31 05:46:08;;;;;;;20.65;15.27;;;512.60;2380.80;;;;;;5042666;28;20103;-70
2023/08/31 05:48:36;;;;;;;19.17;15.13;;;512.70;2380.80;;;;;;5040601;28;20021;-71
2023/08/31 05:51:03;;;;;;;18.77;14.57;;;512.80;2380.80;;;;;;5040550;28;20021;-69
2023/08/31 05:53:33;;;;;;;17.17;14.40;;;512.50;2380.80;;;;;;5034114;28;20124;-70
2023/08/31 05:56:06;;;;;;;21.65;14.10;;;512.50;2380.80;;;;;;5044889;28;20088;-71
2023/08/31 05:58:33;;;;;;;20.98;14.05;;;512.30;2380.80;;;;;;5041005;28;20034;-71
2023/08/31 06:00:59;;;;;;;17.98;13.55;;;512.70;2380.80;;;;;;5044298;28;20056;-70
2023/08/31 06:03:25;;;;;;;18.13;13.38;;;512.90;2380.80;;;;;;5040801;28;20029;-73
2023/08/31 06:05:51;;;;;;;17.77;13.63;;;537.60;2406.40;;;;;;5040572;28;20040;-74
2023/08/31 06:08:16;;;;;;;17.65;13.27;;;537.80;2406.40;;;;;;5043459;28;20028;-74
2023/08/31 06:10:42;;;;;;;15.23;12.30;;;538.00;2406.40;;;;;;5041391;28;20020;-72
2023/08/31 06:13:08;;;;;;;14.95;12.82;;;537.90;2406.40;;;;;;5040387;28;20469;-73
2023/08/31 06:15:34;;;;;;;16.08;11.57;;;537.90;2406.40;;;;;;5038480;28;20026;-70
2023/08/31 06:17:59;;;;;;;14.90;11.95;;;538.10;2406.40;;;;;;5045204;28;20025;-72
2023/08/31 06:20:25;;;;;;;14.48;10.60;;;538.30;2406.40;;;;;;5038813;28;20022;-69
2023/08/31 06:22:51;;;;;;;13.48;10.98;;;538.30;2406.40;;;;;;5041076;28;20021;-70
2023/08/31 06:25:18;;;;;;;13.30;11.05;;;538.10;2406.40;;;;;;5040248;28;20033;-69
2023/08/31 06:27:44;;;;;;;15.32;11.07;;;538.10;2406.40;;;;;;5041166;28;20124;-71
2023/08/31 06:30:16;;;;;;;12.32;9.48;;;538.10;2406.40;;;;;;5047587;28;20076;-70
2023/08/31 06:32:46;;;;;;;14.80;10.52;;;538.20;2406.40;;;;;;5041424;28;20057;-71
2023/08/31 06:35:13;;;;;;;15.13;11.02;;;538.20;2406.40;;;;;;5041501;28;20022;-70
2023/08/31 06:37:39;;;;;;;11.38;9.77;;;538.30;2406.40;;;;;;5037451;28;20076;-70
2023/08/31 06:40:08;;;;;;;12.68;10.40;;;538.40;2406.40;;;;;;5047956;28;20021;-70
2023/08/31 06:42:34;;;;;;;13.68;10.88;;;538.50;2406.40;;;;;;5046741;28;20013;-71
2023/08/31 06:45:00;;;;;;;15.70;11.55;;;538.50;2406.40;;;;;;5042244;28;20022;-72
2023/08/31 06:47:25;;;;;;;13.23;10.88;;;538.50;2406.40;;;;;;5037876;28;20024;-70
2023/08/31 06:49:51;;;;;;;14.63;10.98;;;538.50;2406.40;;;;;;5044849;28;20020;-69
2023/08/31 06:52:17;;;;;;;14.55;9.70;;;563.40;2432.00;;;;;;5043392;28;20493;-70
2023/08/31 06:54:43;;;;;;;14.82;11.07;;;563.50;2432.00;;;;;;5047786;28;20508;-70
2023/08/31 06:57:08;;;;;;;16.65;11.25;;;563.50;2432.00;;;;;;5045124;28;20025;-71
2023/08/31 06:59:34;;;;;;;18.67;11.13;;;563.40;2432.00;;;;;;5037903;28;20026;-70
2023/08/31 07:02:00;;;;;;;12.15;10.85;;;563.50;2432.00;;;;;;5040703;28;20022;-72
2023/08/31 07:04:27;;;;;;;19.33;12.57;;;563.60;2432.00;;;;;;5035577;28;20048;-72
2023/08/31 07:06:53;;;;;;;17.83;12.45;;;563.60;2432.00;;;;;;5042740;28;20021;-70
2023/08/31 07:09:18;;;;;;;14.50;12.02;;;563.60;2432.00;;;;;;5044753;28;20362;-71
2023/08/31 07:11:44;;;;;;;14.90;12.10;;;563.60;2432.00;;;;;;5040937;28;20022;-70
2023/08/31 07:14:10;;;;;;;22.38;14.65;;;563.70;2432.00;;;;;;5041499;28;20040;-71
2023/08/31 07:16:35;;;;;;;17.63;13.73;;;563.80;2432.00;;;;;;5041395;28;20422;-70
2023/08/31 07:19:02;;;;;;;20.92;15.18;;;563.90;2432.00;;;;;;5040535;28;20051;-69
2023/08/31 07:21:28;;;;;;;21.13;14.82;;;563.80;2432.00;;;;;;5035568;28;20074;-70
2023/08/31 07:23:54;;;;;;;27.45;17.17;;;563.90;2432.00;;;;;;5037051;28;20409;-71
2023/08/31 07:26:20;;;;;;;22.83;17.85;;;563.90;2432.00;;;;;;5040527;28;20072;-70
2023/08/31 07:28:47;;;;;;;18.80;15.60;;;564.00;2432.00;;;;;;5038224;28;20078;-70
2023/08/31 07:31:13;;;;;;;23.35;17.00;;;564.00;2432.00;;;;;;5036685;28;20038;-70
2023/08/31 07:33:39;;;;;;;23.10;17.40;;;564.10;2432.00;;;;;;5036190;28;20090;-71
2023/08/31 07:36:06;;;;;;;19.38;15.85;;;588.80;2432.00;;;;;;5040354;28;20029;-70
2023/08/31 07:38:32;;;;;;;22.55;14.32;;;564.10;2432.00;;;;;;5040216;28;20057;-70
2023/08/31 07:40:58;;;;;;;26.67;18.23;;;564.00;2432.00;;;;;;5040901;28;20024;-70
2023/08/31 07:43:25;;;;;;;19.92;15.68;;;563.80;2432.00;;;;;;5043521;28;20377;-69
2023/08/31 07:45:52;;;;;;;14.15;12.63;;;564.00;2432.00;;;;;;5043879;28;20026;-69
2023/08/31 07:48:17;;;;;;;17.20;13.65;;;564.10;2432.00;;;;;;5046986;28;20029;-70
2023/08/31 07:50:43;;;;;;;19.02;14.23;;;564.10;2432.00;;;;;;5038025;28;20014;-70
2023/08/31 07:53:09;;;;;;;18.85;14.52;;;588.80;2432.00;;;;;;5037631;28;20037;-70
2023/08/31 07:55:37;;;;;;;19.92;12.90;;;564.10;2432.00;;;;;;5044819;28;20094;-69
2023/08/31 07:58:03;;;;;;;15.35;13.50;;;588.80;2432.00;;;;;;5041958;28;20025;-70
2023/08/31 08:00:29;;;;;;;20.20;12.18;;;588.80;2432.00;;;;;;5039970;28;20439;-69
2023/08/31 08:02:54;;;;;;;17.95;13.57;;;564.10;2432.00;;;;;;5039911;28;20025;-69
2023/08/31 08:05:20;;;;;;;21.13;15.95;;;588.80;2432.00;;;;;;5036592;28;20022;-70
2023/08/31 08:07:47;;;;;;;16.80;14.13;;;588.80;2432.00;;;;;;5041578;28;20116;-70
2023/08/31 08:10:12;;;;;;;19.80;13.43;;;564.10;2432.00;;;;;;5034962;28;20017;-69
2023/08/31 08:12:40;;;;;;;14.63;11.95;;;564.10;2432.00;;;;;;5038441;28;20079;-70
2023/08/31 08:15:07;;;;;;;15.60;11.85;;;588.80;2432.00;;;;;;5036420;28;20030;-70
2023/08/31 08:17:33;;;;;;;20.10;15.85;;;589.00;2432.00;;;;;;5036897;28;20075;-69
2023/08/31 08:19:59;;;;;;;19.83;15.57;;;589.10;2432.00;;;;;;5039642;28;20025;-70
2023/08/31 08:22:25;;;;;;;18.40;14.20;;;589.10;2432.00;;;;;;5033017;28;20027;-69
2023/08/31 08:24:51;;;;;;;21.17;13.88;;;589.10;2432.00;;;;;;5040840;28;20025;-69
2023/08/31 08:27:20;;;;;;;17.85;11.70;;;589.00;2432.00;;;;;;5035656;28;20066;-70
2023/08/31 08:29:46;;;;;;;19.27;13.02;;;588.90;2432.00;;;;;;5040981;28;20024;-69
2023/08/31 08:32:12;;;;;;;18.65;13.70;;;588.90;2432.00;;;;;;5041904;28;20113;-69
2023/08/31 08:34:38;;;;;;;19.27;13.85;;;588.90;2432.00;;;;;;5036216;28;20037;-69
2023/08/31 08:37:04;;;;;;;20.05;14.10;;;588.90;2432.00;;;;;;5037601;28;20025;-69
2023/08/31 08:39:30;;;;;;;21.48;15.20;;;589.10;2432.00;;;;;;5038776;28;20049;-69
2023/08/31 08:41:58;;;;;;;21.05;14.80;;;589.20;2432.00;;;;;;5042689;28;20056;-69
2023/08/31 08:44:32;;;;;;;22.38;14.60;;;589.40;2432.00;;;;;;5039324;28;20032;-70
2023/08/31 08:47:00;;;;;;;15.10;13.02;;;589.50;2432.00;;;;;;5044012;28;20025;-69
2023/08/31 08:49:27;;;;;;;16.60;13.35;;;589.60;2432.00;;;;;;5039156;28;20124;-69
2023/08/31 08:51:53;;;;;;;17.42;14.43;;;589.60;2432.00;;;;;;5038900;28;20021;-69
2023/08/31 08:54:21;;;;;;;14.63;10.95;;;589.70;2432.00;;;;;;5038921;28;20041;-69
2023/08/31 08:56:47;;;;;;;13.13;9.82;;;614.40;2432.00;;;;;;5044015;28;20028;-71
2023/08/31 08:59:14;;;;;;;17.33;11.07;;;614.40;2432.00;;;;;;5045724;28;20385;-71
2023/08/31 09:01:40;;;;;;;15.07;9.45;;;589.70;2432.00;;;;;;5036646;28;20445;-70
2023/08/31 09:04:08;;;;;;;14.80;9.25;;;614.80;2432.00;;;;;;5035482;28;20482;-68
2023/08/31 09:06:34;;;;;;;9.98;8.73;;;615.30;2432.00;;;;;;5037506;28;20095;-70
2023/08/31 09:09:00;;;;;;;11.80;8.52;;;640.20;2432.00;;;;;;5035480;28;20469;-69
2023/08/31 09:11:26;;;;;;;12.13;8.52;;;640.60;2432.00;;;;;;5039853;28;20108;-69
2023/08/31 09:13:52;;;;;;;9.57;7.75;;;640.60;2432.00;;;;;;5039283;28;20456;-69
2023/08/31 09:16:28;;;;;;;10.57;8.20;;;640.80;2432.00;;;;;;5039574;28;20013;-74
2023/08/31 09:18:55;;;;;;;9.43;7.82;;;665.70;2432.00;;;;;;5044222;28;20021;-70
2023/08/31 09:21:21;;;;;;;8.38;7.15;;;665.90;2432.00;;;;;;5041786;28;20465;-69
2023/08/31 09:23:57;;;;;;;7.57;6.18;;;666.00;2432.00;;;;;;5040872;28;20038;-69
2023/08/31 09:26:23;;;;;;;8.27;6.60;;;666.20;2432.00;;;;;;5028545;28;20044;-70
2023/08/31 09:28:49;;;;;;;9.65;7.10;;;666.00;2432.00;;;;;;5039631;28;20458;-71
2023/08/31 09:31:15;;;;;;;10.43;7.03;;;666.30;2432.00;;;;;;5037689;28;20124;-72
2023/08/31 09:33:50;;;;;;;8.38;7.47;;;666.30;2432.00;;;;;;5043319;28;20041;-70
2023/08/31 09:36:16;;;;;;;8.97;6.70;;;691.20;2432.00;;;;;;5041300;28;20351;-70
2023/08/31 09:38:45;;;;;;;10.00;7.40;;;691.60;2432.00;;;;;;5043239;28;20021;-70
2023/08/31 09:41:11;;;;;;;10.43;6.60;;;691.50;2432.00;;;;;;5032642;28;20132;-72
2023/08/31 09:43:37;;;;;;;11.60;5.88;;;691.60;2432.00;;;;;;5039142;28;20112;-69
2023/08/31 09:46:04;;;;;;;7.85;6.43;;;691.70;2432.00;;;;;;5034460;28;20509;-70
2023/08/31 09:48:30;;;;;;;8.90;6.40;;;692.10;2432.00;;;;;;5038521;28;20096;-72
2023/08/31 09:50:57;;;;;;;8.02;6.38;;;692.00;2380.80;;;;;;5034886;28;20095;-72
2023/08/31 09:53:28;;;;;;;10.90;7.25;;;692.10;2432.00;;;;;;5037493;28;20041;-70
2023/08/31 09:55:56;;;;;;;9.43;6.35;;;692.00;2329.60;;;;;;5037755;28;20036;-70
2023/08/31 09:58:22;;;;;;;9.07;6.55;;;692.10;2304.00;;;;;;5040118;28;20025;-70
2023/08/31 10:00:52;;;;;;;8.57;7.22;;;716.80;2329.60;;;;;;5041589;28;20029;-71
2023/08/31 10:03:18;;;;;;;8.45;5.97;;;717.20;2380.80;;;;;;5019311;28;20113;-75
2023/08/31 10:05:45;;;;;;;8.45;7.00;;;;;;;;;;5044744;28;20163;-70
2023/08/31 10:08:12;;;;;;;10.80;7.72;;;717.60;2304.00;;;;;;5038920;28;20053;-71
2023/08/31 10:10:38;;;;;;;10.90;7.85;;;717.10;2329.60;;;;;;5038121;28;20025;-71
2023/08/31 10:13:08;;;;;;;9.70;6.78;;;692.10;2304.00;;;;;;5035072;28;20025;-71
2023/08/31 10:15:35;;;;;;;10.48;7.82;;;691.80;2406.40;;;;;;5036160;28;20031;-71
2023/08/31 10:18:02;;;;;;;8.85;7.47;;;691.40;2432.00;;;;;;5033586;28;20083;-71
2023/08/31 10:20:31;;;;;;;15.20;7.72;;;691.30;2432.00;;;;;;5036900;28;20049;-70
2023/08/31 10:23:05;;;;;;;9.18;7.40;;;691.40;2432.00;;;;;;5036345;28;20120;-70
2023/08/31 10:26:00;;;;;;;11.60;7.97;;;691.90;2432.00;;;;;;5037714;28;20021;-71
2023/08/31 10:28:30;;;;;;;8.05;6.30;;;717.10;2432.00;;;;;;5026910;28;20033;-70
2023/08/31 10:31:05;;;;;;;11.38;7.78;;;717.40;2355.20;;;;;;5023710;28;20065;-70
2023/08/31 10:33:32;;;;;;;12.18;6.97;;;717.40;2252.80;;;;;;5016484;28;20407;-71
2023/08/31 10:35:59;;;;;;;12.05;7.57;;;742.40;2227.20;;;;;;5018861;28;20041;-71
2023/08/31 10:38:32;;;;;;;9.68;6.40;;;717.10;2304.00;;;;;;5027665;28;20065;-71
2023/08/31 10:41:02;;;;;;;8.38;5.72;;;691.90;2304.00;;;;;;5023661;28;20040;-72
2023/08/31 10:43:42;;;;;;;10.05;5.47;;;691.80;2406.40;;;;;;5027746;28;20076;-71
2023/08/31 10:46:30;;;;;;;7.32;5.35;;;716.90;2329.60;;;;;;5022538;28;20034;-71
2023/08/31 10:48:58;;;;;;;7.97;4.40;;;717.60;2278.40;;;;;;5021322;28;20022;-72
2023/08/31 10:51:31;;;;;;;8.52;4.70;;;742.40;2227.20;;;;;;5025797;28;20099;-71
2023/08/31 10:54:09;;;;;;;7.00;4.32;;;742.80;2176.00;;;;;;5027872;28;20034;-72
2023/08/31 10:56:54;;;;;;;5.82;3.80;;;742.60;2048.00;;;;;;5046900;28;20037;-71
2023/08/31 10:59:21;;;;;;;7.10;4.32;;;742.80;2048.00;;;;;;5023558;28;20033;-71
2023/08/31 11:02:02;;;;;;;8.18;4.32;;;743.20;2124.80;;;;;;5022005;28;20030;-71
2023/08/31 11:04:29;;;;;;;7.75;3.72;;;768.10;1996.80;;;;;;5019949;28;20120;-72
2023/08/31 11:07:18;;;;;;;5.55;3.65;;;768.40;1971.20;;;;;;5039774;28;20022;-71
2023/08/31 11:09:45;;;;;;;5.93;4.20;;;768.70;2022.40;;;;;;5038819;28;20379;-71
2023/08/31 11:12:12;;;;;;;15.68;4.47;;;768.10;2048.00;;;;;;5039067;28;20403;-71
2023/08/31 11:14:38;;;;;;;8.57;3.70;;;768.60;1945.60;;;;;;5044315;28;20029;-72
2023/08/31 11:17:05;;;;;;;5.60;3.85;;;743.20;1971.20;;;;;;5049014;28;20021;-74
2023/08/31 11:19:32;;;;;;;5.13;4.20;;;768.40;1945.60;;;;;;5041432;28;20025;-71
2023/08/31 11:21:59;;;;;;;7.47;4.20;;;768.40;1920.00;;;;;;5044518;28;20067;-72
2023/08/31 11:24:25;;;;;;;6.15;3.72;;;768.60;1868.80;;;;;;5038365;28;20044;-74
2023/08/31 11:26:52;;;;;;;4.47;3.45;;;768.40;1945.60;;;;;;5047635;28;20041;-73
2023/08/31 11:29:17;;;;;;;4.90;3.55;;;768.00;1971.20;;;;;;5039171;28;20025;-73
2023/08/31 11:31:43;;;;;;;4.65;3.13;;;768.40;1792.00;;;;;;5039580;28;20092;-73
2023/08/31 11:34:14;;;;;;;5.43;3.63;;;768.50;1817.60;;;;;;5042376;28;20038;-73
2023/08/31 11:36:45;;;;;;;4.00;2.92;;;768.70;1894.40;;;;;;5055571;28;20022;-71
2023/08/31 11:39:14;;;;;;;7.00;4.13;;;768.80;1817.60;;;;;;5040363;28;20024;-72
2023/08/31 11:41:42;;;;;;;6.03;4.13;;;768.60;1843.20;;;;;;5035815;28;20025;-71
2023/08/31 11:44:18;;;;;;;6.30;3.67;;;768.70;1843.20;;;;;;5039913;28;20083;-70
2023/08/31 11:46:45;;;;;;;;;;;768.90;1817.60;;;;;;5042672;28;20060;-70
2023/08/31 11:49:11;;;;;;;4.10;2.78;;;793.70;1894.40;;;;;;5043363;28;19909;-71
2023/08/31 11:51:39;;;;;;;4.18;3.00;;;793.70;1766.40;;;;;;5044253;28;20032;-70
2023/08/31 11:54:05;;;;;;;6.53;3.30;;;793.70;1868.80;;;;;;5044795;28;20131;-70
2023/08/31 11:56:39;;;;;;;4.72;3.10;;;793.80;1740.80;;;;;;5038800;28;20033;-70
2023/08/31 11:59:14;;;;;;;4.03;3.50;;;793.80;1740.80;;;;;;5033292;28;20032;-72
2023/08/31 12:01:43;;;;;;;6.38;3.08;;;768.40;1740.80;;;;;;5037829;28;20633;-71
2023/08/31 12:04:13;;;;;;;5.07;4.35;;;768.30;1843.20;;;;;;5036351;28;20034;-71
2023/08/31 12:06:40;;;;;;;5.65;4.05;;;742.90;1843.20;;;;;;5039729;28;20532;-71
2023/08/31 12:09:09;;;;;;;6.43;3.20;;;743.10;1843.20;;;;;;5043807;28;20485;-71
2023/08/31 12:11:35;;;;;;;5.22;2.88;;;742.90;1868.80;;;;;;5040381;28;20025;-71